createdAt,value
2018-03-04T00:00:43.849Z,4.10
2018-03-04T00:03:11.312Z,4.10
2018-03-04T00:05:38.773Z,4.10
2018-03-04T00:08:06.236Z,4.00
2018-03-04T00:10:33.695Z,4.00
2018-03-04T00:13:01.145Z,3.90
2018-03-04T00:15:28.615Z,3.80
2018-03-04T00:17:56.065Z,3.50
2018-03-04T00:20:23.536Z,3.50
2018-03-04T00:22:51.773Z,3.40
2018-03-04T00:25:19.240Z,3.40
2018-03-04T00:27:46.697Z,3.70
2018-03-04T00:30:14.160Z,4.30
2018-03-04T00:32:41.622Z,4.50
2018-03-04T00:35:09.081Z,4.70
2018-03-04T00:37:36.552Z,4.70
2018-03-04T00:40:04.008Z,4.70
2018-03-04T00:42:31.472Z,4.90
2018-03-04T00:44:59.693Z,5.10
2018-03-04T00:47:27.159Z,5.10
2018-03-04T00:49:54.609Z,5.20
2018-03-04T00:52:22.069Z,5.40
2018-03-04T00:54:49.583Z,5.60
2018-03-04T00:57:17.803Z,5.80
2018-03-04T00:59:45.265Z,5.70
2018-03-04T01:02:12.728Z,5.70
2018-03-04T01:04:40.185Z,5.70
2018-03-04T01:07:07.658Z,5.80
2018-03-04T01:09:35.112Z,5.80
2018-03-04T01:12:02.581Z,5.80
2018-03-04T01:14:30.037Z,5.50
2018-03-04T01:16:57.505Z,5.20
2018-03-04T01:19:24.973Z,4.90
2018-03-04T01:21:53.208Z,4.40
2018-03-04T01:24:20.664Z,4.40
2018-03-04T01:26:48.136Z,4.20
2018-03-04T01:29:15.601Z,4.10
2018-03-04T01:31:43.086Z,3.90
2018-03-04T01:34:11.308Z,3.60
2018-03-04T01:36:38.774Z,3.50
2018-03-04T01:39:06.249Z,3.40
2018-03-04T01:41:33.710Z,3.30
2018-03-04T01:44:01.188Z,3.20
2018-03-04T01:46:29.427Z,3.00
2018-03-04T01:48:56.900Z,3.00
2018-03-04T01:51:36.280Z,3.00
2018-03-04T01:54:03.758Z,2.90
2018-03-04T01:56:31.216Z,2.90
2018-03-04T01:58:58.692Z,2.90
2018-03-04T02:01:26.161Z,2.90
2018-03-04T02:03:53.628Z,2.90
2018-03-04T02:06:21.095Z,3.00
2018-03-04T02:08:49.332Z,3.10
2018-03-04T02:11:16.795Z,3.10
2018-03-04T02:13:44.258Z,3.00
2018-03-04T02:16:11.720Z,3.00
2018-03-04T02:18:39.187Z,2.90
2018-03-04T02:21:06.649Z,2.90
2018-03-04T02:23:34.125Z,2.70
2018-03-04T02:26:02.353Z,2.50
2018-03-04T02:28:29.824Z,2.50
2018-03-04T02:30:57.325Z,2.40
2018-03-04T02:33:25.567Z,2.20
2018-03-04T02:35:53.027Z,2.20
2018-03-04T02:38:20.494Z,2.10
2018-03-04T02:40:47.956Z,2.10
2018-03-04T02:43:16.189Z,2.00
2018-03-04T02:45:43.645Z,1.90
2018-03-04T02:48:11.127Z,1.90
2018-03-04T02:50:38.578Z,1.90
2018-03-04T02:53:06.040Z,1.80
2018-03-04T02:55:33.519Z,1.70
2018-03-04T02:58:01.754Z,1.70
2018-03-04T03:00:29.223Z,1.70
2018-03-04T03:02:56.684Z,1.80
2018-03-04T03:05:24.156Z,1.90
2018-03-04T03:07:51.621Z,1.90
2018-03-04T03:10:19.087Z,1.90
2018-03-04T03:12:47.300Z,2.10
2018-03-04T03:15:14.772Z,2.10
2018-03-04T03:17:42.227Z,2.10
2018-03-04T03:20:09.693Z,2.00
2018-03-04T03:22:37.153Z,1.90
2018-03-04T03:25:04.616Z,1.80
2018-03-04T03:27:32.073Z,1.70
2018-03-04T03:29:59.532Z,1.80
2018-03-04T03:32:27.751Z,1.80
2018-03-04T03:34:55.229Z,1.70
2018-03-04T03:37:22.681Z,1.80
2018-03-04T03:39:50.153Z,1.70
2018-03-04T03:42:17.608Z,1.70
2018-03-04T03:44:45.073Z,1.70
2018-03-04T03:47:12.530Z,1.60
2018-03-04T03:49:39.991Z,1.50
2018-03-04T03:52:07.448Z,1.50
2018-03-04T03:54:34.916Z,1.40
2018-03-04T03:57:02.377Z,1.40
2018-03-04T03:59:29.832Z,1.40
2018-03-04T04:01:57.301Z,1.40
2018-03-04T04:04:24.756Z,1.30
2018-03-04T04:06:52.228Z,1.30
2018-03-04T04:09:19.671Z,1.30
2018-03-04T04:11:47.136Z,1.20
2018-03-04T04:14:14.599Z,1.20
2018-03-04T04:16:42.064Z,1.20
2018-03-04T04:19:10.291Z,1.00
2018-03-04T04:21:37.756Z,1.00
2018-03-04T04:24:05.220Z,1.00
2018-03-04T04:26:32.687Z,1.00
2018-03-04T04:29:00.146Z,1.00
2018-03-04T04:31:27.611Z,0.90
2018-03-04T04:33:55.068Z,0.90
2018-03-04T04:36:22.534Z,0.90
2018-03-04T04:38:49.984Z,1.10
2018-03-04T04:41:17.440Z,1.20
2018-03-04T04:43:44.896Z,1.20
2018-03-04T04:46:12.355Z,1.30
2018-03-04T04:48:39.809Z,1.20
2018-03-04T04:51:07.279Z,1.20
2018-03-04T04:53:34.737Z,1.10
2018-03-04T04:56:02.201Z,1.00
2018-03-04T04:58:30.424Z,0.90
2018-03-04T05:00:57.892Z,0.90
2018-03-04T05:03:25.360Z,0.90
2018-03-04T05:05:52.818Z,0.80
2018-03-04T05:08:20.276Z,0.70
2018-03-04T05:10:47.728Z,0.70
2018-03-04T05:13:15.191Z,0.70
2018-03-04T05:15:42.647Z,0.70
2018-03-04T05:18:10.110Z,0.70
2018-03-04T05:20:37.569Z,0.60
2018-03-04T05:23:05.036Z,0.80
2018-03-04T05:25:32.496Z,0.80
2018-03-04T05:27:59.965Z,0.90
2018-03-04T05:30:28.197Z,1.10
2018-03-04T05:32:55.656Z,1.10
2018-03-04T05:37:57.140Z,0.90
2018-03-04T05:40:25.360Z,0.80
2018-03-04T05:42:53.594Z,0.80
2018-03-04T05:45:21.044Z,0.80
2018-03-04T05:47:48.512Z,0.70
2018-03-04T05:50:15.973Z,0.70
2018-03-04T05:52:43.459Z,0.60
2018-03-04T05:55:11.690Z,0.70
2018-03-04T05:57:39.161Z,0.70
2018-03-04T06:00:06.626Z,0.70
2018-03-04T06:02:34.100Z,0.70
2018-03-04T06:05:02.333Z,0.70
2018-03-04T06:07:29.799Z,0.60
2018-03-04T06:09:58.097Z,0.70
2018-03-04T06:12:25.571Z,0.70
2018-03-04T06:14:53.813Z,1.00
2018-03-04T06:17:21.268Z,1.00
2018-03-04T06:19:49.500Z,1.00
2018-03-04T06:22:16.972Z,0.90
2018-03-04T06:24:44.488Z,0.90
2018-03-04T06:27:11.921Z,0.90
2018-03-04T06:29:39.388Z,0.90
2018-03-04T06:32:06.851Z,1.00
2018-03-04T06:34:34.329Z,0.90
2018-03-04T06:37:02.548Z,0.80
2018-03-04T06:39:30.021Z,0.70
2018-03-04T06:41:57.479Z,0.70
2018-03-04T06:44:24.945Z,0.80
2018-03-04T06:46:52.402Z,0.80
2018-03-04T06:49:19.866Z,0.80
2018-03-04T06:51:47.318Z,0.70
2018-03-04T06:54:14.783Z,0.70
2018-03-04T06:56:42.233Z,0.80
2018-03-04T06:59:09.692Z,0.80
2018-03-04T07:01:37.153Z,0.80
2018-03-04T07:04:04.614Z,1.00
2018-03-04T07:06:32.070Z,1.10
2018-03-04T07:08:59.536Z,1.30
2018-03-04T07:11:27.760Z,1.40
2018-03-04T07:13:55.233Z,1.40
2018-03-04T07:16:22.693Z,1.60
2018-03-04T07:18:50.170Z,1.60
2018-03-04T07:21:17.620Z,1.70
2018-03-04T07:23:45.077Z,1.90
2018-03-04T07:26:12.562Z,1.90
2018-03-04T07:28:40.790Z,1.90
2018-03-04T07:31:08.269Z,1.90
2018-03-04T07:33:35.736Z,1.80
2018-03-04T07:36:03.235Z,1.80
2018-03-04T07:38:30.711Z,1.80
2018-03-04T07:40:58.194Z,1.80
2018-03-04T07:43:25.665Z,1.90
2018-03-04T07:45:53.161Z,1.90
2018-03-04T07:48:21.399Z,2.00
2018-03-04T07:50:48.869Z,1.90
2018-03-04T07:53:16.340Z,2.00
2018-03-04T07:55:44.598Z,2.20
2018-03-04T07:58:12.067Z,2.20
2018-03-04T08:00:40.321Z,2.60
2018-03-04T08:03:07.780Z,2.60
2018-03-04T08:05:35.260Z,2.90
2018-03-04T08:08:03.513Z,3.50
2018-03-04T08:10:30.998Z,3.50
2018-03-04T08:12:59.230Z,3.90
2018-03-04T08:15:26.696Z,3.80
2018-03-04T08:17:54.168Z,3.90
2018-03-04T08:20:21.647Z,4.00
2018-03-04T08:22:49.880Z,4.00
2018-03-04T08:25:29.433Z,4.00
2018-03-04T08:30:53.506Z,4.10
2018-03-04T08:33:20.972Z,4.30
2018-03-04T08:35:48.459Z,4.40
2018-03-04T08:38:15.948Z,4.50
2018-03-04T08:40:43.488Z,4.90
2018-03-04T08:43:11.783Z,6.40
2018-03-04T08:45:39.386Z,6.40
2018-03-04T08:48:06.882Z,8.10
2018-03-04T08:50:35.133Z,11.90
2018-03-04T08:53:02.620Z,11.90
2018-03-04T08:55:30.856Z,14.00
2018-03-04T08:57:58.669Z,14.00
2018-03-04T09:00:26.923Z,15.30
2018-03-04T09:02:54.401Z,15.30
2018-03-04T09:05:22.636Z,16.10
2018-03-04T09:07:50.326Z,16.20
2018-03-04T09:10:17.813Z,17.20
2018-03-04T09:12:45.300Z,17.20
2018-03-04T09:15:26.904Z,17.10
2018-03-04T09:17:55.176Z,17.40
2018-03-04T09:20:22.650Z,17.40
2018-03-04T09:22:50.126Z,17.70
2018-03-04T09:25:18.361Z,18.20
2018-03-04T09:27:45.857Z,18.20
2018-03-04T09:30:13.341Z,18.20
2018-03-04T09:32:40.831Z,18.40
2018-03-04T09:35:09.224Z,18.70
2018-03-04T09:37:36.725Z,18.60
2018-03-04T09:40:04.971Z,19.10
2018-03-04T09:42:32.477Z,19.10
2018-03-04T09:44:59.971Z,19.00
2018-03-04T09:47:27.458Z,19.20
2018-03-04T09:49:54.951Z,19.60
2018-03-04T09:52:22.438Z,19.80
2018-03-04T09:54:49.931Z,19.20
2018-03-04T09:57:17.403Z,19.40
2018-03-04T09:59:45.659Z,20.20
2018-03-04T10:02:13.129Z,20.20
2018-03-04T10:04:41.394Z,19.90
2018-03-04T10:07:08.877Z,19.80
2018-03-04T10:09:37.138Z,19.00
2018-03-04T10:12:05.373Z,18.70
2018-03-04T10:14:32.852Z,18.70
2018-03-04T10:17:00.324Z,18.60
2018-03-04T10:19:27.813Z,19.30
2018-03-04T10:21:55.290Z,18.80
2018-03-04T10:24:22.764Z,19.50
2018-03-04T10:26:50.238Z,20.30
2018-03-04T10:29:17.729Z,20.10
2018-03-04T10:31:45.973Z,20.30
2018-03-04T10:34:13.454Z,20.30
2018-03-04T10:36:41.691Z,20.00
2018-03-04T10:39:09.168Z,19.90
2018-03-04T10:41:36.640Z,20.60
2018-03-04T10:44:04.125Z,20.20
2018-03-04T10:46:31.622Z,19.90
2018-03-04T10:48:59.086Z,20.10
2018-03-04T10:51:26.569Z,19.90
2018-03-04T10:53:54.036Z,19.50
2018-03-04T10:56:22.297Z,18.90
2018-03-04T10:58:49.767Z,18.90
2018-03-04T11:01:19.972Z,18.50
2018-03-04T11:03:47.451Z,18.50
2018-03-04T11:06:15.713Z,18.20
2018-03-04T11:08:43.184Z,18.20
2018-03-04T11:11:11.437Z,17.60
2018-03-04T11:13:38.914Z,17.60
2018-03-04T11:16:07.168Z,17.20
2018-03-04T11:18:34.641Z,17.20
2018-03-04T11:21:02.206Z,17.50
2018-03-04T11:23:30.466Z,17.80
2018-03-04T11:25:57.943Z,17.80
2018-03-04T11:28:26.177Z,18.00
2018-03-04T11:30:53.654Z,18.00
2018-03-04T11:33:21.116Z,18.40
2018-03-04T11:35:48.595Z,18.40
2018-03-04T11:38:16.830Z,18.30
2018-03-04T11:40:44.300Z,18.30
2018-03-04T11:43:11.772Z,17.70
2018-03-04T11:45:39.236Z,17.70
2018-03-04T11:48:07.476Z,15.70
2018-03-04T11:50:34.945Z,15.60
2018-03-04T11:53:02.429Z,14.80
2018-03-04T11:55:30.666Z,14.50
2018-03-04T11:57:58.136Z,14.40
2018-03-04T12:00:25.599Z,14.70
2018-03-04T12:02:53.076Z,14.90
2018-03-04T12:05:21.305Z,15.60
2018-03-04T12:07:48.790Z,15.60
2018-03-04T12:10:16.249Z,16.20
2018-03-04T12:12:43.729Z,16.50
2018-03-04T12:15:12.005Z,16.60
2018-03-04T12:17:39.460Z,16.50
2018-03-04T12:20:07.688Z,16.20
2018-03-04T12:22:35.184Z,16.20
2018-03-04T12:25:02.652Z,15.90
2018-03-04T12:27:30.895Z,14.90
2018-03-04T12:29:58.364Z,14.90
2018-03-04T12:32:25.839Z,14.60
2018-03-04T12:34:54.077Z,14.30
2018-03-04T12:37:21.550Z,14.30
2018-03-04T12:39:49.144Z,14.20
2018-03-04T12:42:17.410Z,14.00
2018-03-04T12:44:45.697Z,13.80
2018-03-04T12:47:13.200Z,13.70
2018-03-04T12:49:40.720Z,13.70
2018-03-04T12:52:08.976Z,13.90
2018-03-04T12:54:36.438Z,13.90
2018-03-04T12:57:03.911Z,13.90
2018-03-04T12:59:32.148Z,14.20
2018-03-04T13:01:59.874Z,14.10
2018-03-04T13:04:27.374Z,14.20
2018-03-04T13:06:54.875Z,14.10
2018-03-04T13:09:23.108Z,14.00
2018-03-04T13:11:50.571Z,14.00
2018-03-04T13:14:18.055Z,13.70
2018-03-04T13:16:46.291Z,13.50
2018-03-04T13:19:13.760Z,13.40
2018-03-04T13:21:41.229Z,13.30
2018-03-04T13:24:08.700Z,13.40
2018-03-04T13:26:36.943Z,13.40
2018-03-04T13:29:04.439Z,13.40
2018-03-04T13:31:32.679Z,13.40
2018-03-04T13:34:00.148Z,13.40
2018-03-04T13:36:27.620Z,13.40
2018-03-04T13:38:55.856Z,13.30
2018-03-04T13:41:23.324Z,13.20
2018-03-04T13:43:50.797Z,13.20
2018-03-04T13:46:18.256Z,13.20
2018-03-04T13:48:45.738Z,13.10
2018-03-04T13:51:14.002Z,13.10
2018-03-04T13:53:42.245Z,13.30
2018-03-04T13:56:09.708Z,13.20
2018-03-04T13:58:37.191Z,13.40
2018-03-04T14:01:05.427Z,13.50
2018-03-04T14:03:32.896Z,13.50
2018-03-04T14:06:00.353Z,13.60
2018-03-04T14:08:28.600Z,13.50
2018-03-04T14:10:56.069Z,13.50
2018-03-04T14:13:23.539Z,13.40
2018-03-04T14:15:51.004Z,13.10
2018-03-04T14:18:18.476Z,12.90
2018-03-04T14:20:45.939Z,12.70
2018-03-04T14:23:13.405Z,12.50
2018-03-04T14:25:41.662Z,12.40
2018-03-04T14:28:09.132Z,12.40
2018-03-04T14:30:36.596Z,12.50
2018-03-04T14:33:04.830Z,12.50
2018-03-04T14:35:32.318Z,12.50
2018-03-04T14:37:59.785Z,12.60
2018-03-04T14:40:28.025Z,12.70
2018-03-04T14:42:55.486Z,12.70
2018-03-04T14:45:22.970Z,12.90
2018-03-04T14:47:50.428Z,13.00
2018-03-04T14:50:18.673Z,13.00
2018-03-04T14:52:46.160Z,13.00
2018-03-04T14:55:13.624Z,13.10
2018-03-04T14:57:41.844Z,13.40
2018-03-04T15:00:09.324Z,13.40
2018-03-04T15:02:37.554Z,13.20
2018-03-04T15:05:05.041Z,13.20
2018-03-04T15:07:32.502Z,13.00
2018-03-04T15:10:00.033Z,13.10
2018-03-04T15:12:27.502Z,13.10
2018-03-04T15:14:54.984Z,13.00
2018-03-04T15:17:22.446Z,13.00
2018-03-04T15:19:49.922Z,12.90
2018-03-04T15:22:17.391Z,12.80
2018-03-04T15:24:44.861Z,12.70
2018-03-04T15:27:13.105Z,12.70
2018-03-04T15:29:40.599Z,12.70
2018-03-04T15:32:08.052Z,12.70
2018-03-04T15:34:36.292Z,12.50
2018-03-04T15:37:03.774Z,12.50
2018-03-04T15:39:32.054Z,12.40
2018-03-04T15:42:00.307Z,12.20
2018-03-04T15:44:27.784Z,12.20
2018-03-04T15:46:55.264Z,12.10
2018-03-04T15:49:22.740Z,12.10
2018-03-04T15:51:50.216Z,12.00
2018-03-04T15:54:17.685Z,11.90
2018-03-04T15:56:45.230Z,11.80
2018-03-04T15:59:13.426Z,11.50
2018-03-04T16:01:40.916Z,11.50
2018-03-04T16:04:09.149Z,11.30
2018-03-04T16:06:36.623Z,11.30
2018-03-04T16:09:04.112Z,11.20
2018-03-04T16:11:32.365Z,11.20
2018-03-04T16:13:59.839Z,11.20
2018-03-04T16:16:28.082Z,11.20
2018-03-04T16:18:55.560Z,11.20
2018-03-04T16:21:23.033Z,11.10
2018-03-04T16:23:51.265Z,10.80
2018-03-04T16:26:18.759Z,10.90
2018-03-04T16:28:47.002Z,10.70
2018-03-04T16:31:14.466Z,10.70
2018-03-04T16:33:41.984Z,10.60
2018-03-04T16:36:10.184Z,10.40
2018-03-04T16:38:37.665Z,10.40
2018-03-04T16:41:05.131Z,10.30
2018-03-04T16:43:32.612Z,10.30
2018-03-04T16:46:00.831Z,10.10
2018-03-04T16:48:28.315Z,10.00
2018-03-04T16:50:55.781Z,9.90
2018-03-04T16:53:23.256Z,9.90
2018-03-04T16:55:51.488Z,9.80
2018-03-04T16:58:18.960Z,9.80
2018-03-04T17:00:46.431Z,9.70
2018-03-04T17:03:13.901Z,9.60
2018-03-04T17:05:42.135Z,9.60
2018-03-04T17:08:09.608Z,9.50
2018-03-04T17:10:37.101Z,9.50
2018-03-04T17:13:05.342Z,9.40
2018-03-04T17:15:32.843Z,9.40
2018-03-04T17:18:00.341Z,9.40
2018-03-04T17:20:27.814Z,9.30
2018-03-04T17:22:55.587Z,9.30
2018-03-04T17:25:23.085Z,9.40
2018-03-04T17:27:50.605Z,9.30
2018-03-04T17:30:18.192Z,9.10
2018-03-04T17:32:45.701Z,9.20
2018-03-04T17:35:13.231Z,9.10
2018-03-04T17:37:40.721Z,9.10
2018-03-04T17:40:08.236Z,9.00
2018-03-04T17:42:35.713Z,8.90
2018-03-04T17:45:03.225Z,8.90
2018-03-04T17:47:31.474Z,9.00
2018-03-04T17:49:58.964Z,9.00
2018-03-04T17:52:27.212Z,8.80
2018-03-04T17:54:54.708Z,8.80
2018-03-04T17:57:22.987Z,8.60
2018-03-04T17:59:51.261Z,8.50
2018-03-04T18:02:18.798Z,8.50
2018-03-04T18:04:46.278Z,8.50
2018-03-04T18:07:14.818Z,8.60
2018-03-04T18:09:42.309Z,8.60
2018-03-04T18:12:10.590Z,8.40
2018-03-04T18:14:38.839Z,8.50
2018-03-04T18:17:06.299Z,8.50
2018-03-04T18:19:33.771Z,8.40
2018-03-04T18:22:01.249Z,8.30
2018-03-04T18:24:29.496Z,8.40
2018-03-04T18:26:56.963Z,8.40
2018-03-04T18:29:24.460Z,8.30
2018-03-04T18:31:51.945Z,8.20
2018-03-04T18:34:19.426Z,8.10
2018-03-04T18:36:46.914Z,8.20
2018-03-04T18:39:15.153Z,8.10
2018-03-04T18:41:42.622Z,8.00
2018-03-04T18:44:10.114Z,8.10
2018-03-04T18:46:37.576Z,8.10
2018-03-04T18:49:05.051Z,8.00
2018-03-04T18:51:32.524Z,7.90
2018-03-04T18:54:00.009Z,7.90
2018-03-04T18:56:27.490Z,7.90
2018-03-04T18:58:55.722Z,7.80
2018-03-04T19:01:23.200Z,7.80
2018-03-04T19:03:50.670Z,7.80
2018-03-04T19:06:18.915Z,7.80
2018-03-04T19:08:46.521Z,7.80
2018-03-04T19:11:14.002Z,7.90
2018-03-04T19:13:41.473Z,7.80
2018-03-04T19:16:08.949Z,7.70
2018-03-04T19:18:36.418Z,7.60
2018-03-04T19:21:03.896Z,7.60
2018-03-04T19:23:32.136Z,7.60
2018-03-04T19:25:59.608Z,7.60
2018-03-04T19:28:27.074Z,7.60
2018-03-04T19:30:54.540Z,7.70
2018-03-04T19:33:22.769Z,7.70
2018-03-04T19:35:50.239Z,7.70
2018-03-04T19:38:17.710Z,8.00
2018-03-04T19:40:45.182Z,8.30
2018-03-04T19:43:12.665Z,8.50
2018-03-04T19:45:40.953Z,8.40
2018-03-04T19:48:08.449Z,8.40
2018-03-04T19:50:36.008Z,8.50
2018-03-04T19:53:03.465Z,8.60
2018-03-04T19:55:30.930Z,8.60
2018-03-04T19:57:58.391Z,8.60
2018-03-04T20:00:25.848Z,8.70
2018-03-04T20:02:53.320Z,8.80
2018-03-04T20:05:20.824Z,9.00
2018-03-04T20:07:48.296Z,9.10
2018-03-04T20:10:15.753Z,9.10
2018-03-04T20:12:43.223Z,9.10
2018-03-04T20:15:10.684Z,9.10
2018-03-04T20:17:38.151Z,9.00
2018-03-04T20:20:05.605Z,8.90
2018-03-04T20:22:33.080Z,8.90
2018-03-04T20:25:00.548Z,8.90
2018-03-04T20:27:28.796Z,8.60
2018-03-04T20:29:56.244Z,8.60
2018-03-04T20:32:23.720Z,8.60
2018-03-04T20:34:51.202Z,8.60
2018-03-04T20:37:19.464Z,8.40
2018-03-04T20:39:46.961Z,8.30
2018-03-04T20:42:14.436Z,8.20
2018-03-04T20:44:41.897Z,8.10
2018-03-04T20:47:09.368Z,8.00
2018-03-04T20:49:36.820Z,8.00
2018-03-04T20:52:04.288Z,8.00
2018-03-04T20:54:31.760Z,8.00
2018-03-04T20:56:59.232Z,7.80
2018-03-04T20:59:27.452Z,7.80
2018-03-04T21:01:55.133Z,7.70
2018-03-04T21:04:22.621Z,7.80
2018-03-04T21:06:50.112Z,7.70
2018-03-04T21:09:17.599Z,7.70
2018-03-04T21:11:45.090Z,7.60
2018-03-04T21:14:12.567Z,7.60
2018-03-04T21:16:40.818Z,7.50
2018-03-04T21:19:08.301Z,7.50
2018-03-04T21:21:36.566Z,7.60
2018-03-04T21:24:04.063Z,7.60
2018-03-04T21:26:31.555Z,7.60
2018-03-04T21:28:59.040Z,7.60
2018-03-04T21:31:26.540Z,7.50
2018-03-04T21:33:54.037Z,7.50
2018-03-04T21:36:21.597Z,7.40
2018-03-04T21:38:49.783Z,7.20
2018-03-04T21:41:17.247Z,7.20
2018-03-04T21:43:44.731Z,7.30
2018-03-04T21:46:12.267Z,7.20
2018-03-04T21:48:39.767Z,7.30
2018-03-04T21:51:07.264Z,7.40
2018-03-04T21:53:34.746Z,7.50
2018-03-04T21:56:02.987Z,7.50
2018-03-04T21:58:30.466Z,7.40
2018-03-04T22:00:57.981Z,7.40
2018-03-04T22:03:25.475Z,7.40
2018-03-04T22:05:52.970Z,7.30
2018-03-04T22:08:21.229Z,7.30
2018-03-04T22:10:49.478Z,7.30
2018-03-04T22:13:16.983Z,7.30
2018-03-04T22:15:44.559Z,7.20
2018-03-04T22:18:12.040Z,7.10
2018-03-04T22:20:39.518Z,7.10
2018-03-04T22:23:07.006Z,7.10
2018-03-04T22:25:35.245Z,7.20
2018-03-04T22:28:02.737Z,7.10
2018-03-04T22:30:30.980Z,7.20
2018-03-04T22:32:58.461Z,7.20
2018-03-04T22:35:25.931Z,7.10
2018-03-04T22:37:54.186Z,6.90
2018-03-04T22:40:21.684Z,6.90
2018-03-04T22:42:49.161Z,6.80
2018-03-04T22:45:16.641Z,6.60
2018-03-04T22:47:44.114Z,6.50
2018-03-04T22:50:11.590Z,6.50
2018-03-04T22:52:39.081Z,6.50
2018-03-04T22:55:06.549Z,6.40
2018-03-04T22:57:34.037Z,6.30
2018-03-04T23:00:01.503Z,6.30
2018-03-04T23:02:28.997Z,6.30
2018-03-04T23:04:57.234Z,6.50
2018-03-04T23:07:24.700Z,6.50
2018-03-04T23:09:52.168Z,6.50
2018-03-04T23:12:19.629Z,6.50
2018-03-04T23:14:47.878Z,6.30
2018-03-04T23:17:15.349Z,6.30
2018-03-04T23:19:42.830Z,6.30
2018-03-04T23:22:11.063Z,6.50
2018-03-04T23:24:38.532Z,6.40
2018-03-04T23:27:06.013Z,6.50
2018-03-04T23:29:34.240Z,6.10
2018-03-04T23:32:01.706Z,6.10
2018-03-04T23:34:29.195Z,6.00
2018-03-04T23:36:56.668Z,5.90
2018-03-04T23:39:24.917Z,5.70
2018-03-04T23:41:52.436Z,5.60
2018-03-04T23:44:20.665Z,5.80
2018-03-04T23:46:48.889Z,5.90
2018-03-04T23:49:16.356Z,5.90
2018-03-04T23:51:43.819Z,5.80
2018-03-04T23:54:11.290Z,5.70
2018-03-04T23:56:38.768Z,5.60
2018-03-04T23:59:06.234Z,5.50
